Time;durP1;ratioP1;P1;durP2;ratioP2;P2;SDS_P1;SDS_P2;PMS_P1;PMS_P2;Temp;Humidity;BMP_temperature;BMP_pressure;BME280_temperature;BME280_humidity;BME280_pressure;Samples;Min_cycle;Max_cycle;Signal;HPM_P1;HPM_P2
2022/05/23 00:03:15;;;;;;;2.47;2.00;;;14.50;99.90;;;;;;5011333;28;20453;-82
2022/05/23 00:06:12;;;;;;;2.80;1.63;;;14.40;99.90;;;;;;4995885;28;20060;-81
2022/05/23 00:09:14;;;;;;;4.65;1.90;;;14.30;99.90;;;;;;4994000;28;20061;-81
2022/05/23 00:11:58;;;;;;;3.80;1.88;;;14.30;99.90;;;;;;5010522;28;20046;-82
2022/05/23 00:14:43;;;;;;;3.58;2.00;;;14.20;99.90;;;;;;5011509;28;20200;-82
2022/05/23 00:17:11;;;;;;;5.68;2.17;;;14.10;99.90;;;;;;5000603;28;20060;-82
2022/05/23 00:19:43;;;;;;;2.75;1.90;;;14.10;99.90;;;;;;4995139;28;20122;-82
2022/05/23 00:22:11;;;;;;;2.60;1.80;;;14.00;99.90;;;;;;5011478;28;20096;-82
2022/05/23 00:24:58;;;;;;;4.07;2.28;;;13.90;99.90;;;;;;4998261;28;20249;-82
2022/05/23 00:27:24;;;;;;;2.83;2.30;;;13.90;99.90;;;;;;4998886;28;20050;-82
2022/05/23 00:30:11;;;;;;;4.53;2.33;;;13.90;99.90;;;;;;4997896;28;20056;-81
2022/05/23 00:35:30;;;;;;;3.08;1.83;;;13.80;99.90;;;;;;5014161;28;20046;-81
2022/05/23 00:44:43;;;;;;;4.90;1.95;;;13.90;99.90;;;;;;5017912;28;20064;-82
2022/05/23 00:47:43;;;;;;;;;;;;;;;;;;;;;
2022/05/23 00:51:47;;;;;;;;;;;;;;;;;;;;;
2022/05/23 00:59:13;;;;;;;4.13;2.03;;;14.00;99.90;;;;;;4972082;29;20047;-82
2022/05/23 01:01:59;;;;;;;6.63;1.98;;;14.00;99.90;;;;;;4895835;29;20124;-82
2022/05/23 01:04:42;;;;;;;3.30;1.90;;;14.00;99.90;;;;;;4894401;29;20082;-81
2022/05/23 01:07:09;;;;;;;2.80;1.45;;;14.00;99.90;;;;;;4950707;28;20055;-82
2022/05/23 01:10:33;;;;;;;10.43;1.63;;;14.00;99.90;;;;;;4997695;28;20099;-82
2022/05/23 01:13:09;;;;;;;5.22;1.60;;;14.00;99.90;;;;;;4883151;29;20104;-82
2022/05/23 01:15:59;;;;;;;2.50;1.80;;;14.00;99.90;;;;;;4897968;29;20029;-82
2022/05/23 01:18:40;;;;;;;9.95;1.92;;;14.00;99.90;;;;;;4996739;28;20045;-82
2022/05/23 01:21:22;;;;;;;6.88;2.17;;;14.00;99.90;;;;;;4992167;28;20493;-81
2022/05/23 01:27:56;;;;;;;4.30;1.85;;;14.00;99.90;;;;;;4958130;29;20362;-81
2022/05/23 01:30:29;;;;;;;2.10;1.55;;;14.00;99.90;;;;;;4932030;29;20044;-81
2022/05/23 01:33:58;;;;;;;;;;;;;;;;;;;;;
2022/05/23 01:36:47;;;;;;;6.15;1.73;;;14.00;99.90;;;;;;4982761;28;20030;-78
2022/05/23 02:05:51;;;;;;;4.18;1.52;;;13.80;99.90;;;;;;5037762;28;20579;-81
2022/05/23 02:08:47;;;;;;;3.05;1.40;;;13.80;99.90;;;;;;5005918;28;20110;-81
2022/05/23 02:11:17;;;;;;;4.30;1.48;;;13.80;99.90;;;;;;5005517;28;20041;-81
2022/05/23 02:14:38;;;;;;;6.07;1.88;;;13.80;99.90;;;;;;5005687;28;20037;-81
2022/05/23 02:17:18;;;;;;;5.00;1.73;;;13.80;99.90;;;;;;4992303;28;20045;-81
2022/05/23 02:20:26;;;;;;;3.88;1.40;;;13.80;99.90;;;;;;5009179;28;20131;-81
2022/05/23 02:23:25;;;;;;;3.13;1.58;;;13.70;99.90;;;;;;5009680;28;20045;-81
2022/05/23 02:25:57;;;;;;;4.22;1.55;;;13.80;99.90;;;;;;5007459;28;20045;-81
2022/05/23 02:28:48;;;;;;;5.97;1.60;;;13.70;99.90;;;;;;5004436;28;20081;-81
2022/05/23 02:31:17;;;;;;;3.10;1.88;;;13.80;99.90;;;;;;4998304;28;20112;-81
2022/05/23 02:34:29;;;;;;;1.85;1.70;;;13.80;99.90;;;;;;5014344;28;20048;-81
2022/05/23 02:45:07;;;;;;;7.57;1.60;;;13.80;99.90;;;;;;4879334;29;20105;-81
2022/05/23 02:47:34;;;;;;;3.40;1.52;;;13.80;99.90;;;;;;4884448;29;20051;-81
2022/05/23 02:50:47;;;;;;;3.55;1.92;;;13.80;99.90;;;;;;4980037;28;20049;-81
2022/05/23 02:53:50;;;;;;;4.72;2.08;;;13.90;99.90;;;;;;5012586;28;20127;-81
2022/05/23 02:57:22;;;;;;;5.68;2.08;;;13.80;99.90;;;;;;4986520;28;20050;-82
2022/05/23 03:00:36;;;;;;;4.28;1.70;;;13.70;99.90;;;;;;4895052;29;20056;-81
2022/05/23 03:14:43;;;;;;;4.38;1.60;;;13.90;99.90;;;;;;4773247;29;20051;-81
2022/05/23 03:18:01;;;;;;;3.30;1.58;;;13.80;99.90;;;;;;4918986;29;20083;-81
2022/05/23 03:27:02;;;;;;;4.93;1.58;;;13.80;99.90;;;;;;4960648;28;20042;-81
2022/05/23 03:29:34;;;;;;;9.30;2.67;;;13.70;99.90;;;;;;4998632;28;20045;-81
2022/05/23 03:32:01;;;;;;;4.50;1.88;;;13.70;99.90;;;;;;4997410;28;20455;-81
2022/05/23 03:34:38;;;;;;;6.07;1.83;;;13.70;99.90;;;;;;4998564;28;20377;-81
2022/05/23 03:37:11;;;;;;;8.02;2.05;;;13.70;99.90;;;;;;4997722;28;20534;-81
2022/05/23 03:39:55;;;;;;;5.93;2.33;;;13.70;99.90;;;;;;4996557;28;20071;-81
2022/05/23 03:42:21;;;;;;;3.80;1.75;;;13.80;99.90;;;;;;4997803;28;20034;-81
2022/05/23 03:45:14;;;;;;;5.20;2.53;;;13.70;99.90;;;;;;4998177;28;20048;-81
2022/05/23 03:47:53;;;;;;;3.20;2.13;;;13.60;99.90;;;;;;4993913;28;20084;-81
2022/05/23 03:50:26;;;;;;;2.58;2.05;;;13.60;99.90;;;;;;4997952;28;20104;-81
2022/05/23 03:53:31;;;;;;;4.80;1.73;;;13.60;99.90;;;;;;4997893;28;20037;-81
2022/05/23 03:55:58;;;;;;;5.68;2.08;;;13.60;99.90;;;;;;4998172;28;20069;-81
2022/05/23 03:58:26;;;;;;;2.95;2.13;;;13.60;99.90;;;;;;4998581;28;20099;-81
2022/05/23 04:00:53;;;;;;;4.30;2.40;;;13.50;99.90;;;;;;5017932;28;20492;-81
2022/05/23 04:03:21;;;;;;;5.97;2.28;;;13.50;99.90;;;;;;5001675;28;20575;-81
2022/05/23 04:05:47;;;;;;;4.18;2.33;;;13.40;99.90;;;;;;5002077;28;20498;-81
2022/05/23 04:08:13;;;;;;;3.60;2.10;;;13.30;99.90;;;;;;5001950;28;20136;-81
2022/05/23 04:10:43;;;;;;;3.00;2.22;;;13.40;99.90;;;;;;5001793;28;20046;-81
2022/05/23 04:13:11;;;;;;;6.25;2.80;;;13.20;99.90;;;;;;5001915;28;20136;-82
2022/05/23 04:15:41;;;;;;;3.58;2.47;;;13.30;99.90;;;;;;5018021;28;20056;-81
2022/05/23 04:18:07;;;;;;;5.80;1.90;;;13.30;99.90;;;;;;5008757;28;20129;-81
2022/05/23 04:20:36;;;;;;;8.90;2.25;;;13.30;99.90;;;;;;5009348;28;20041;-81
2022/05/23 04:23:02;;;;;;;4.50;1.98;;;13.30;99.90;;;;;;5011206;28;20045;-81
2022/05/23 04:25:35;;;;;;;5.65;2.40;;;13.30;99.90;;;;;;5010511;28;20041;-81
2022/05/23 04:28:01;;;;;;;3.20;2.17;;;13.30;99.90;;;;;;5010737;28;20041;-81
2022/05/23 04:30:27;;;;;;;4.28;2.17;;;13.40;99.90;;;;;;5009490;28;20048;-81
2022/05/23 04:35:40;;;;;;;8.70;2.53;;;13.40;99.90;;;;;;5024687;28;20047;-81
2022/05/23 04:38:18;;;;;;;6.68;2.70;;;13.50;99.90;;;;;;5008997;28;20072;-81
2022/05/23 04:40:57;;;;;;;5.35;2.35;;;13.60;99.90;;;;;;5008788;28;20045;-81
2022/05/23 04:43:26;;;;;;;5.78;2.35;;;13.70;99.90;;;;;;5009665;28;20053;-81
2022/05/23 04:45:51;;;;;;;6.25;2.25;;;13.70;99.90;;;;;;5007797;28;20041;-81
2022/05/23 04:51:10;;;;;;;5.18;2.40;;;13.90;99.90;;;;;;5024407;28;20065;-80
2022/05/23 04:53:36;;;;;;;5.35;2.63;;;14.00;99.90;;;;;;5008856;28;20045;-80
2022/05/23 04:56:02;;;;;;;8.50;2.40;;;14.10;99.90;;;;;;5009236;28;20072;-80
2022/05/23 04:58:28;;;;;;;5.07;2.85;;;14.10;99.90;;;;;;5009080;28;20136;-80
2022/05/23 05:00:58;;;;;;;5.47;2.55;;;14.20;99.90;;;;;;5010007;28;20081;-80
2022/05/23 05:03:24;;;;;;;5.28;2.78;;;14.30;99.90;;;;;;5008567;28;20396;-80
2022/05/23 05:05:52;;;;;;;3.80;2.78;;;14.50;99.90;;;;;;5007784;28;20072;-80
2022/05/23 05:08:21;;;;;;;6.83;2.70;;;14.70;99.90;;;;;;5024492;28;20037;-80
2022/05/23 05:10:50;;;;;;;6.30;2.75;;;14.90;99.90;;;;;;5007423;28;20049;-81
2022/05/23 05:13:19;;;;;;;5.03;2.47;;;15.10;99.90;;;;;;5008702;28;20269;-80
2022/05/23 05:15:47;;;;;;;5.53;3.03;;;15.20;99.90;;;;;;5022478;28;20033;-80
2022/05/23 05:18:13;;;;;;;4.32;2.60;;;15.40;99.90;;;;;;5023445;28;20098;-80
2022/05/23 05:20:39;;;;;;;4.30;2.83;;;15.50;99.90;;;;;;5016772;28;20042;-81
2022/05/23 05:23:05;;;;;;;5.35;2.60;;;15.80;99.90;;;;;;5000084;28;20033;-81
2022/05/23 05:25:31;;;;;;;4.50;2.67;;;16.00;99.90;;;;;;5017072;28;20043;-81
2022/05/23 05:27:57;;;;;;;6.03;2.60;;;16.30;99.90;;;;;;5016471;28;20120;-81
2022/05/23 05:30:23;;;;;;;4.15;2.30;;;16.70;99.90;;;;;;4999958;28;20240;-80
2022/05/23 05:33:09;;;;;;;4.53;2.58;;;17.10;99.90;;;;;;5016525;28;20518;-81
2022/05/23 05:36:10;;;;;;;7.65;2.75;;;17.50;99.90;;;;;;4999954;28;20041;-81
2022/05/23 05:38:54;;;;;;;7.93;2.70;;;17.90;99.90;;;;;;5000188;28;20044;-81
2022/05/23 05:41:47;;;;;;;4.68;2.58;;;18.10;99.90;;;;;;5016547;28;20204;-81
2022/05/23 05:44:18;;;;;;;4.13;2.55;;;18.10;99.90;;;;;;5000123;28;20107;-81
2022/05/23 05:46:51;;;;;;;4.30;2.63;;;17.90;99.90;;;;;;5000023;28;20374;-81
2022/05/23 05:49:22;;;;;;;4.35;2.60;;;17.80;99.90;;;;;;5016205;28;20041;-81
2022/05/23 05:51:56;;;;;;;8.67;3.17;;;17.70;99.90;;;;;;4999530;28;20045;-81
2022/05/23 05:54:26;;;;;;;4.45;2.67;;;17.60;99.90;;;;;;4999937;28;20033;-81
2022/05/23 05:56:55;;;;;;;5.82;2.90;;;17.50;99.90;;;;;;4999778;28;20565;-81
2022/05/23 05:59:21;;;;;;;8.80;2.85;;;17.40;99.90;;;;;;5015960;28;20042;-81
2022/05/23 06:01:47;;;;;;;6.47;3.03;;;17.50;99.90;;;;;;4999526;28;20041;-81
2022/05/23 06:04:16;;;;;;;6.25;3.55;;;17.60;99.90;;;;;;4999762;28;20041;-80
2022/05/23 06:12:18;;;;;;;8.55;3.28;;;18.30;99.90;;;;;;5015911;28;20073;-81
2022/05/23 06:14:44;;;;;;;6.60;3.13;;;18.60;99.90;;;;;;4999941;28;20080;-80
2022/05/23 06:17:13;;;;;;;10.43;2.95;;;18.80;99.90;;;;;;4999098;28;20535;-81
2022/05/23 06:19:44;;;;;;;;;;;19.00;99.90;;;;;;5000186;28;20128;-81
2022/05/23 06:22:14;;;;;;;5.68;3.20;;;19.20;99.90;;;;;;4998369;28;20284;-81
2022/05/23 06:24:49;;;;;;;4.35;3.13;;;19.30;99.90;;;;;;5014612;28;20185;-81
2022/05/23 06:27:17;;;;;;;9.27;3.35;;;19.40;99.90;;;;;;4999023;28;20485;-81
2022/05/23 06:29:47;;;;;;;6.38;3.05;;;19.60;99.90;;;;;;4998290;28;20061;-81
2022/05/23 06:32:16;;;;;;;5.25;2.97;;;19.70;99.90;;;;;;4998858;28;20037;-81
2022/05/23 06:35:00;;;;;;;10.00;3.40;;;19.80;99.90;;;;;;5015284;28;20034;-81
2022/05/23 06:37:45;;;;;;;8.48;3.92;;;19.90;99.90;;;;;;4998763;28;20059;-81
2022/05/23 06:40:18;;;;;;;5.57;3.10;;;20.10;99.90;;;;;;5005126;28;20505;-81
2022/05/23 06:42:57;;;;;;;7.50;3.53;;;20.30;99.90;;;;;;5005960;28;20048;-81
2022/05/23 06:45:29;;;;;;;6.28;2.97;;;20.40;99.90;;;;;;5006103;28;20041;-81
2022/05/23 06:48:01;;;;;;;;;;;20.40;99.90;;;;;;5005771;28;20120;-81
2022/05/23 06:50:27;;;;;;;6.82;3.10;;;20.50;99.90;;;;;;5006539;28;19920;-81
2022/05/23 06:52:53;;;;;;;8.00;3.28;;;20.50;99.90;;;;;;5005948;28;20042;-81
2022/05/23 06:55:25;;;;;;;5.63;2.92;;;20.50;99.90;;;;;;5022055;28;20501;-81
2022/05/23 06:57:54;;;;;;;6.72;3.20;;;20.40;99.90;;;;;;5005281;28;20041;-81
2022/05/23 07:00:45;;;;;;;6.63;3.05;;;20.40;99.90;;;;;;5006249;28;20056;-81
2022/05/23 07:03:14;;;;;;;4.25;2.97;;;20.40;99.90;;;;;;5005466;28;20052;-81
2022/05/23 07:14:27;;;;;;;5.68;3.47;;;20.80;99.90;;;;;;5021830;28;20045;-80
2022/05/23 07:17:11;;;;;;;4.63;2.97;;;20.90;99.90;;;;;;5004751;28;20037;-80
2022/05/23 07:19:42;;;;;;;6.07;3.20;;;21.00;99.90;;;;;;5004456;28;20043;-80
2022/05/23 07:22:14;;;;;;;5.60;3.85;;;21.10;99.90;;;;;;5006167;28;20504;-80
2022/05/23 07:25:07;;;;;;;5.78;3.30;;;21.20;99.90;;;;;;5005483;28;20040;-80
2022/05/23 07:27:46;;;;;;;5.82;3.00;;;21.30;99.90;;;;;;5000494;28;20081;-80
2022/05/23 07:30:19;;;;;;;8.60;2.85;;;21.60;99.90;;;;;;5006372;28;20094;-80
2022/05/23 07:32:49;;;;;;;6.22;3.15;;;21.90;99.90;;;;;;5007072;28;20033;-80
2022/05/23 07:38:46;;;;;;;7.55;3.03;;;22.40;99.90;;;;;;5023270;28;20047;-80
2022/05/23 07:41:32;;;;;;;5.28;2.92;;;22.70;99.90;;;;;;5006842;28;20034;-80
2022/05/23 07:44:28;;;;;;;6.95;2.63;;;22.80;99.90;;;;;;5007084;28;20029;-80
2022/05/23 07:47:06;;;;;;;6.32;3.08;;;23.10;99.90;;;;;;5006963;28;20068;-80
2022/05/23 07:49:53;;;;;;;6.05;3.10;;;23.50;99.90;;;;;;5006632;28;20033;-80
2022/05/23 08:00:31;;;;;;;5.40;3.25;;;23.80;99.90;;;;;;5023294;28;20488;-80
2022/05/23 08:01:28;;;;;;;5.18;2.55;;;24.40;99.90;;;;;;5021468;28;20095;-81
2022/05/23 08:04:23;;;;;;;4.90;2.75;;;24.40;99.90;;;;;;5012137;28;20052;-81
2022/05/23 08:07:00;;;;;;;;;;;;;;;;;;;;;
2022/05/23 08:10:00;;;;;;;5.70;2.85;;;24.40;99.90;;;;;;5023778;28;20073;-80
2022/05/23 08:13:30;;;;;;;11.23;3.13;;;24.30;96.70;;;;;;5004855;28;20052;-81
2022/05/23 08:20:34;;;;;;;3.55;2.40;;;24.10;99.80;;;;;;4957385;28;20058;-80
2022/05/23 09:08:14;;;;;;;5.55;2.58;;;25.80;95.90;;;;;;6316166;22;20026;-81
2022/05/23 09:30:51;;;;;;;4.25;2.47;;;25.20;94.50;;;;;;6280064;22;20027;-80
2022/05/23 09:48:55;;;;;;;3.35;2.08;;;24.60;93.10;;;;;;6182425;23;20048;-81
2022/05/23 09:51:22;;;;;;;4.97;1.95;;;24.70;94.60;;;;;;6133572;23;20036;-81
2022/05/23 09:54:32;;;;;;;2.47;1.38;;;24.70;95.80;;;;;;6134326;23;20382;-81
2022/05/23 09:57:26;;;;;;;3.08;1.55;;;24.80;92.20;;;;;;6142368;23;20545;-81
2022/05/23 10:06:30;;;;;;;5.80;1.70;;;25.40;87.00;;;;;;6286775;22;20027;-81
2022/05/23 10:17:01;;;;;;;3.33;1.48;;;26.00;76.00;;;;;;6236443;22;20116;-82
2022/05/23 10:19:39;;;;;;;4.13;1.73;;;26.30;75.60;;;;;;6224376;22;20016;-82
2022/05/23 10:23:04;;;;;;;2.05;1.52;;;26.30;68.60;;;;;;6225820;22;20022;-82
2022/05/23 10:36:30;;;;;;;;;;;;;;;;;;;;;
2022/05/23 10:42:57;;;;;;;4.95;1.83;;;26.40;77.40;;;;;;6238613;22;20161;-82
2022/05/23 10:45:57;;;;;;;2.85;1.40;;;26.40;79.50;;;;;;6250333;22;20015;-82
2022/05/23 10:49:35;;;;;;;3.38;1.63;;;26.60;74.70;;;;;;6254491;22;20300;-82
2022/05/23 10:56:31;;;;;;;5.03;1.48;;;27.00;78.90;;;;;;6138499;22;20343;-81
2022/05/23 11:06:46;;;;;;;2.08;1.48;;;27.70;66.80;;;;;;6182799;23;20406;-82
2022/05/23 11:09:27;;;;;;;5.65;1.70;;;27.70;65.00;;;;;;6133768;23;20009;-81
2022/05/23 11:12:19;;;;;;;4.50;1.83;;;27.80;66.60;;;;;;6158872;23;20016;-81
2022/05/23 11:14:52;;;;;;;4.70;1.45;;;27.70;62.00;;;;;;6221479;23;20012;-82
2022/05/23 11:17:49;;;;;;;4.00;1.58;;;27.50;64.40;;;;;;6221007;23;20012;-81
2022/05/23 11:21:01;;;;;;;2.05;1.48;;;27.00;61.00;;;;;;6196844;23;20506;-82
2022/05/23 11:24:08;;;;;;;;;;;;;;;;;;;;;
2022/05/23 11:35:52;;;;;;;8.88;2.45;;;27.00;68.50;;;;;;6245708;23;20012;-81
2022/05/23 11:39:00;;;;;;;;;;;;;;;;;;;;;
2022/05/23 11:42:35;;;;;;;5.15;1.67;;;26.80;71.20;;;;;;6120264;22;20019;-81
2022/05/23 11:48:37;;;;;;;6.70;2.28;;;27.00;76.50;;;;;;6243008;23;20095;-82
2022/05/23 11:51:42;;;;;;;4.45;2.05;;;27.30;71.60;;;;;;6220802;22;20020;-81
2022/05/23 11:54:46;;;;;;;2.47;1.73;;;27.30;74.60;;;;;;6217955;23;20016;-81
2022/05/23 11:57:16;;;;;;;2.30;1.40;;;27.00;69.70;;;;;;6242800;23;20016;-81
2022/05/23 11:59:45;;;;;;;3.50;1.92;;;26.40;66.50;;;;;;6247464;23;20012;-81
2022/05/23 12:02:11;;;;;;;7.20;1.92;;;26.00;65.80;;;;;;6223829;23;20357;-81
2022/05/23 12:04:49;;;;;;;3.92;1.60;;;25.70;69.80;;;;;;6223666;23;20016;-81
2022/05/23 12:07:41;;;;;;;4.55;2.05;;;25.60;72.80;;;;;;6224841;23;20012;-81
2022/05/23 12:10:22;;;;;;;4.40;1.58;;;25.50;78.50;;;;;;6247989;23;20035;-81
2022/05/23 12:12:53;;;;;;;4.03;1.98;;;25.50;77.20;;;;;;6248137;22;20024;-82
2022/05/23 12:15:44;;;;;;;5.80;2.03;;;25.50;78.40;;;;;;6223987;23;20015;-81
2022/05/23 12:18:29;;;;;;;2.97;2.10;;;25.50;78.90;;;;;;6224676;23;20012;-81
2022/05/23 12:20:58;;;;;;;4.82;2.70;;;25.60;80.40;;;;;;6224311;22;20052;-82
2022/05/23 12:23:45;;;;;;;9.00;3.13;;;25.60;78.40;;;;;;6224082;23;20016;-81
2022/05/23 12:26:14;;;;;;;9.77;2.67;;;25.50;80.50;;;;;;6224618;23;20081;-82
2022/05/23 12:28:47;;;;;;;12.73;3.38;;;25.50;82.00;;;;;;6252031;23;20018;-82
2022/05/23 12:31:22;;;;;;;5.20;3.03;;;25.50;83.10;;;;;;6224978;22;20679;-81
2022/05/23 12:34:02;;;;;;;7.95;3.10;;;25.40;83.70;;;;;;6225408;23;20016;-82
2022/05/23 12:36:31;;;;;;;5.93;3.30;;;25.40;86.20;;;;;;6226015;23;20020;-82
2022/05/23 12:39:48;;;;;;;5.30;3.13;;;25.40;85.70;;;;;;6226589;23;20036;-82
2022/05/23 12:42:33;;;;;;;3.67;2.60;;;25.40;86.00;;;;;;6176338;23;20016;-82
2022/05/23 12:45:37;;;;;;;8.85;3.50;;;25.30;95.20;;;;;;6225064;23;20012;-81
2022/05/23 12:48:40;;;;;;;9.57;3.97;;;25.10;92.50;;;;;;6225001;23;20084;-82
2022/05/23 12:51:27;;;;;;;8.20;3.60;;;24.80;93.40;;;;;;6243128;22;20040;-80
2022/05/23 12:54:18;;;;;;;4.07;3.67;;;24.50;95.30;;;;;;6223968;23;20023;-80
2022/05/23 12:56:52;;;;;;;7.22;4.20;;;24.30;96.00;;;;;;6225172;23;20027;-80
2022/05/23 12:59:35;;;;;;;5.60;3.65;;;24.00;97.10;;;;;;6225198;23;20008;-80
2022/05/23 13:02:05;;;;;;;5.32;3.60;;;23.80;98.90;;;;;;6250608;22;20012;-80
2022/05/23 13:05:04;;;;;;;8.35;3.55;;;23.70;99.90;;;;;;6225579;23;20012;-80
2022/05/23 13:07:33;;;;;;;7.53;3.85;;;23.70;99.90;;;;;;6240586;23;20008;-80
2022/05/23 13:10:08;;;;;;;6.93;3.80;;;23.70;99.90;;;;;;6223770;23;20092;-80
2022/05/23 13:12:41;;;;;;;8.70;3.92;;;23.80;99.90;;;;;;6223955;23;20028;-80
2022/05/23 13:15:08;;;;;;;7.35;3.42;;;23.80;99.90;;;;;;6225354;23;20012;-80
2022/05/23 13:17:43;;;;;;;10.05;4.15;;;23.80;99.90;;;;;;6227240;23;20512;-80
2022/05/23 13:23:10;;;;;;;8.98;3.70;;;24.00;99.90;;;;;;6254154;22;20016;-80
2022/05/23 13:25:37;;;;;;;7.40;4.07;;;23.90;99.90;;;;;;6227497;23;20012;-80
2022/05/23 13:28:08;;;;;;;8.40;3.75;;;23.90;99.90;;;;;;6227160;23;20651;-80
2022/05/23 13:30:47;;;;;;;7.17;3.40;;;23.90;99.90;;;;;;6226510;23;20043;-80
2022/05/23 13:33:26;;;;;;;8.52;4.20;;;23.80;99.90;;;;;;6227140;23;20051;-80
2022/05/23 13:35:59;;;;;;;6.05;3.78;;;23.80;99.90;;;;;;6226291;23;20468;-80
2022/05/23 13:38:30;;;;;;;6.60;4.22;;;23.80;99.90;;;;;;6253047;23;20012;-80
2022/05/23 13:40:58;;;;;;;5.60;4.28;;;23.90;99.90;;;;;;6226519;22;20448;-80
2022/05/23 13:43:43;;;;;;;7.97;4.07;;;24.10;99.90;;;;;;6227635;23;20015;-80
2022/05/23 13:46:21;;;;;;;6.40;3.88;;;24.30;99.90;;;;;;6254625;23;20066;-80
2022/05/23 13:48:53;;;;;;;7.32;4.30;;;24.40;99.90;;;;;;6228190;23;20051;-80
2022/05/23 13:51:38;;;;;;;5.80;3.78;;;24.60;99.90;;;;;;6253712;22;20009;-80
2022/05/23 13:54:16;;;;;;;8.32;4.22;;;24.70;99.90;;;;;;6252641;23;20012;-81
2022/05/23 13:56:47;;;;;;;8.63;4.38;;;24.90;99.20;;;;;;6226439;23;20016;-80
2022/05/23 13:59:18;;;;;;;5.10;3.78;;;24.80;99.50;;;;;;6226351;23;20020;-80
2022/05/23 14:02:10;;;;;;;7.65;4.25;;;24.80;99.80;;;;;;6227214;23;20012;-80
2022/05/23 14:04:37;;;;;;;10.32;4.35;;;24.80;99.90;;;;;;6228046;23;20008;-80
2022/05/23 14:07:09;;;;;;;6.00;3.20;;;24.80;99.90;;;;;;6253219;23;20016;-80
2022/05/23 14:09:43;;;;;;;8.15;4.40;;;24.70;99.90;;;;;;6227226;23;20008;-80
2022/05/23 14:12:12;;;;;;;5.97;3.22;;;24.70;99.90;;;;;;6228680;23;20454;-81
2022/05/23 14:14:42;;;;;;;6.47;3.22;;;24.50;99.90;;;;;;6228476;23;20084;-81
2022/05/23 14:17:10;;;;;;;6.43;3.17;;;24.40;99.90;;;;;;6229957;23;20019;-80
2022/05/23 14:19:49;;;;;;;4.80;3.10;;;24.40;99.90;;;;;;6255198;23;20016;-80
2022/05/23 14:22:25;;;;;;;7.07;3.40;;;24.30;99.90;;;;;;6247127;23;20004;-80
2022/05/23 14:24:58;;;;;;;8.50;3.13;;;24.20;99.90;;;;;;6244998;23;20016;-81
2022/05/23 14:27:34;;;;;;;8.13;3.60;;;24.10;99.90;;;;;;6241757;23;20103;-80
2022/05/23 14:30:17;;;;;;;7.50;3.08;;;24.00;99.90;;;;;;6225855;23;20392;-80
2022/05/23 14:33:04;;;;;;;6.40;3.28;;;23.90;99.90;;;;;;6223342;23;20018;-80
2022/05/23 14:35:59;;;;;;;6.68;3.55;;;23.80;99.90;;;;;;6219921;23;20092;-80
2022/05/23 14:38:40;;;;;;;5.50;3.28;;;23.70;99.90;;;;;;6184306;23;20012;-80
2022/05/23 14:41:18;;;;;;;6.05;3.38;;;23.60;99.90;;;;;;6218851;22;20008;-81
2022/05/23 14:44:27;;;;;;;5.35;3.50;;;23.50;99.90;;;;;;6221453;23;20321;-81
2022/05/23 14:47:20;;;;;;;7.78;3.08;;;23.50;99.90;;;;;;6227088;23;20012;-81
2022/05/23 14:50:18;;;;;;;5.40;3.30;;;23.40;99.90;;;;;;6226524;23;20039;-81
2022/05/23 14:55:48;;;;;;;5.85;3.13;;;23.30;99.90;;;;;;6244078;23;20012;-80
2022/05/23 15:01:17;;;;;;;5.70;2.92;;;23.30;99.90;;;;;;6243437;22;20016;-80
2022/05/23 15:03:46;;;;;;;3.83;2.67;;;23.30;99.90;;;;;;6218410;23;20469;-80
2022/05/23 15:06:11;;;;;;;4.78;3.15;;;23.30;99.90;;;;;;6218212;23;20023;-80
2022/05/23 15:08:37;;;;;;;8.90;3.22;;;23.30;99.90;;;;;;6218624;23;20008;-80
2022/05/23 15:11:05;;;;;;;5.32;3.00;;;23.30;99.90;;;;;;6218349;22;20023;-80
2022/05/23 15:13:34;;;;;;;5.80;2.83;;;23.30;99.90;;;;;;6218411;23;20016;-80
2022/05/23 15:16:03;;;;;;;5.35;3.13;;;23.30;99.90;;;;;;6218879;23;20022;-78
2022/05/23 15:18:31;;;;;;;5.70;3.00;;;23.20;99.90;;;;;;6245553;22;20008;-77
2022/05/23 15:20:58;;;;;;;6.95;3.10;;;23.20;99.90;;;;;;6245747;22;20079;-77
2022/05/23 15:23:24;;;;;;;6.05;3.10;;;23.20;99.90;;;;;;6244070;23;20019;-76
2022/05/23 15:25:50;;;;;;;6.70;3.42;;;23.30;99.90;;;;;;6244164;22;20008;-76
2022/05/23 15:28:16;;;;;;;7.20;2.95;;;23.30;99.90;;;;;;6244002;23;20044;-83
2022/05/23 15:30:46;;;;;;;6.00;3.10;;;23.30;99.90;;;;;;6218785;23;20048;-82
2022/05/23 15:33:27;;;;;;;6.85;3.25;;;23.30;99.90;;;;;;6219807;23;20012;-83
2022/05/23 15:36:03;;;;;;;9.38;3.50;;;23.30;99.90;;;;;;6243584;23;20039;-83
2022/05/23 15:38:33;;;;;;;4.28;3.42;;;23.30;99.90;;;;;;6246547;22;20008;-83
2022/05/23 15:41:00;;;;;;;6.20;3.63;;;23.20;99.90;;;;;;6218873;22;20095;-83
2022/05/23 15:43:26;;;;;;;7.45;3.03;;;23.30;99.90;;;;;;6218255;23;20044;-83
2022/05/23 15:45:56;;;;;;;7.30;3.38;;;23.20;99.90;;;;;;6243390;23;20012;-82
2022/05/23 15:48:23;;;;;;;7.20;3.33;;;23.20;99.90;;;;;;6218854;23;20406;-83
2022/05/23 15:50:53;;;;;;;5.35;2.83;;;23.20;99.90;;;;;;6217939;23;20040;-83
2022/05/23 15:53:20;;;;;;;4.43;3.20;;;23.00;99.90;;;;;;6243860;23;20495;-83
2022/05/23 15:55:50;;;;;;;6.05;3.17;;;23.10;99.90;;;;;;6219162;23;20016;-83
2022/05/23 15:58:27;;;;;;;5.40;2.70;;;23.10;99.90;;;;;;6244447;23;20093;-82
2022/05/23 16:00:56;;;;;;;3.97;3.42;;;23.00;99.90;;;;;;6218152;23;20094;-83
2022/05/23 16:03:22;;;;;;;6.10;3.35;;;23.00;99.90;;;;;;6218664;23;20327;-81
2022/05/23 16:05:50;;;;;;;5.35;3.33;;;22.90;99.90;;;;;;6218653;23;20051;-80
2022/05/23 16:08:16;;;;;;;11.80;3.55;;;22.80;99.90;;;;;;6218471;23;20023;-80
2022/05/23 16:11:05;;;;;;;5.82;3.33;;;22.80;99.90;;;;;;6218218;23;20012;-80
2022/05/23 16:13:33;;;;;;;8.45;2.75;;;22.70;99.90;;;;;;6243458;23;20028;-80
2022/05/23 16:16:03;;;;;;;7.25;3.03;;;22.70;99.90;;;;;;6219903;23;20012;-80
2022/05/23 16:18:30;;;;;;;6.80;2.90;;;22.60;99.90;;;;;;6218968;23;20023;-80
2022/05/23 16:20:58;;;;;;;7.00;3.20;;;22.50;99.90;;;;;;6219012;22;20008;-80
2022/05/23 16:23:24;;;;;;;8.63;3.60;;;22.50;99.90;;;;;;6217719;23;20016;-80
2022/05/23 16:25:50;;;;;;;9.25;3.30;;;22.40;99.90;;;;;;6217487;23;20019;-80
2022/05/23 16:28:18;;;;;;;7.13;4.78;;;22.40;99.90;;;;;;6217956;23;20019;-81
2022/05/23 16:30:44;;;;;;;7.82;5.78;;;22.30;99.90;;;;;;6217331;23;20031;-81
2022/05/23 16:38:40;;;;;;;13.38;7.68;;;21.90;99.90;;;;;;6244072;23;20354;-80
2022/05/23 16:41:06;;;;;;;15.13;8.55;;;21.70;99.90;;;;;;6219406;22;20319;-80
2022/05/23 16:43:32;;;;;;;10.77;8.15;;;21.50;99.90;;;;;;6243382;23;20035;-81
2022/05/23 16:45:58;;;;;;;12.32;8.52;;;21.30;99.90;;;;;;6244967;23;20012;-81
2022/05/23 16:48:24;;;;;;;14.23;9.48;;;21.10;99.90;;;;;;6245312;23;20341;-80
2022/05/23 16:50:50;;;;;;;14.60;9.05;;;20.80;99.90;;;;;;6246130;23;20015;-80
2022/05/23 16:53:16;;;;;;;13.32;9.50;;;20.70;99.90;;;;;;6247214;22;20074;-80
2022/05/23 16:55:41;;;;;;;13.45;9.80;;;20.50;99.90;;;;;;6245948;23;20083;-80
2022/05/23 16:58:07;;;;;;;15.13;10.45;;;20.40;99.90;;;;;;6248014;23;20013;-80
2022/05/23 17:00:33;;;;;;;15.07;10.20;;;20.20;99.90;;;;;;6246085;23;20031;-80
2022/05/23 17:03:01;;;;;;;17.65;11.73;;;20.00;99.90;;;;;;6269111;22;20039;-80
2022/05/23 17:05:26;;;;;;;17.67;12.23;;;19.70;99.90;;;;;;6277821;22;20012;-80
2022/05/23 17:07:52;;;;;;;12.88;11.05;;;19.60;99.90;;;;;;6228190;22;20008;-81
2022/05/23 17:10:19;;;;;;;19.67;12.30;;;19.50;99.90;;;;;;6249810;22;20432;-80
2022/05/23 17:12:50;;;;;;;15.25;11.32;;;19.50;99.90;;;;;;6249743;22;20487;-80
2022/05/23 17:15:16;;;;;;;15.77;11.43;;;19.40;99.90;;;;;;6249898;22;20079;-80
2022/05/23 17:17:42;;;;;;;17.98;12.32;;;19.20;99.90;;;;;;6224729;22;20239;-81
2022/05/23 17:20:12;;;;;;;16.35;12.40;;;19.20;99.90;;;;;;6277048;22;20058;-80
2022/05/23 17:22:37;;;;;;;17.50;12.55;;;19.10;99.90;;;;;;6250008;22;20437;-81
2022/05/23 17:25:03;;;;;;;21.45;12.90;;;19.10;99.90;;;;;;6224416;22;20023;-80
2022/05/23 17:27:32;;;;;;;19.42;12.18;;;19.00;99.90;;;;;;6224620;22;20012;-81
2022/05/23 17:29:58;;;;;;;19.90;11.60;;;19.00;99.90;;;;;;6224660;22;20141;-80
2022/05/23 17:32:24;;;;;;;18.77;13.20;;;18.90;99.90;;;;;;6224672;22;20055;-80
2022/05/23 17:34:49;;;;;;;20.55;12.80;;;18.80;99.90;;;;;;6250080;22;20039;-80
2022/05/23 17:37:15;;;;;;;16.45;11.27;;;18.90;99.90;;;;;;6224931;22;20386;-80
2022/05/23 17:39:40;;;;;;;18.55;13.48;;;18.90;99.90;;;;;;6225559;22;20086;-81
2022/05/23 17:42:06;;;;;;;24.42;14.40;;;18.80;99.90;;;;;;6227493;22;20058;-79
2022/05/23 17:44:33;;;;;;;26.88;14.52;;;18.80;99.90;;;;;;6276643;22;20008;-80
2022/05/23 17:46:59;;;;;;;20.85;13.55;;;18.70;99.90;;;;;;6249301;22;20444;-80
2022/05/23 17:49:25;;;;;;;20.67;14.48;;;18.70;99.90;;;;;;6223278;22;20012;-80
2022/05/23 17:51:51;;;;;;;21.17;14.10;;;18.60;99.90;;;;;;6223837;22;20563;-80
2022/05/23 17:54:16;;;;;;;18.05;13.45;;;18.60;99.90;;;;;;6276031;22;20035;-80
2022/05/23 17:56:42;;;;;;;22.02;15.20;;;18.50;99.90;;;;;;6248577;22;20372;-80
2022/05/23 17:59:08;;;;;;;20.13;14.90;;;18.50;99.90;;;;;;6248883;22;20024;-81
2022/05/23 18:01:33;;;;;;;24.63;15.75;;;18.50;99.90;;;;;;6248296;22;20842;-80